Time;durP1;ratioP1;P1;durP2;ratioP2;P2;SDS_P1;SDS_P2;PMS_P1;PMS_P2;Temp;Humidity;BMP_temperature;BMP_pressure;BME280_temperature;BME280_humidity;BME280_pressure;Samples;Min_cycle;Max_cycle;Signal;HPM_P1;HPM_P2
2023/07/29 00:02:02;;;;;;;7.00;6.50;;;;;;;16.74;95.50;97587.19;5072020;28;20442;-81
2023/07/29 00:04:29;;;;;;;6.90;6.40;;;;;;;16.82;95.49;97580.47;5071252;28;20457;-82
2023/07/29 00:06:55;;;;;;;8.47;7.60;;;;;;;17.00;94.59;97580.13;5069819;28;20545;-83
2023/07/29 00:09:22;;;;;;;7.40;6.70;;;;;;;16.96;94.68;97586.38;5065666;28;20457;-82
2023/07/29 00:11:50;;;;;;;6.27;5.67;;;;;;;16.94;94.88;97575.69;5063991;28;20451;-81
2023/07/29 00:14:17;;;;;;;7.30;6.70;;;;;;;17.00;94.53;97574.66;5068721;28;20550;-81
2023/07/29 00:16:44;;;;;;;6.33;5.87;;;;;;;17.19;94.13;97577.91;5066091;28;20466;-81
2023/07/29 00:19:11;;;;;;;7.47;6.83;;;;;;;16.97;94.57;97568.88;5068950;28;20481;-80
2023/07/29 00:21:38;;;;;;;7.00;6.20;;;;;;;16.88;95.14;97559.50;5069167;28;20526;-82
2023/07/29 00:24:05;;;;;;;6.27;5.77;;;;;;;17.06;94.48;97559.16;5066942;28;20541;-81
2023/07/29 00:26:32;;;;;;;6.50;6.00;;;;;;;17.12;93.92;97555.41;5069068;28;20448;-81
2023/07/29 00:29:00;;;;;;;5.93;5.43;;;;;;;16.99;94.71;97562.06;5068799;28;21012;-81
2023/07/29 00:31:27;;;;;;;5.80;5.40;;;;;;;16.97;94.76;97563.41;5068820;28;20461;-81
2023/07/29 00:33:53;;;;;;;6.63;6.03;;;;;;;16.97;94.79;97560.69;5068622;28;20568;-81
2023/07/29 00:36:20;;;;;;;7.13;6.53;;;;;;;17.06;94.84;97556.41;5068965;28;20450;-81
2023/07/29 00:38:47;;;;;;;8.13;5.80;;;;;;;17.02;94.87;97567.03;5068876;28;20462;-80
2023/07/29 00:41:14;;;;;;;6.60;6.10;;;;;;;17.08;94.70;97576.97;5067742;28;20496;-80
2023/07/29 00:43:41;;;;;;;7.40;6.70;;;;;;;17.16;94.07;97567.50;5068764;28;20533;-81
2023/07/29 00:46:09;;;;;;;5.87;5.37;;;;;;;17.09;94.47;97566.84;5068483;28;20451;-80
2023/07/29 00:48:36;;;;;;;6.00;5.27;;;;;;;17.17;94.40;97557.38;5068745;28;20844;-80
2023/07/29 00:51:03;;;;;;;6.23;5.80;;;;;;;17.08;94.34;97559.72;5069113;28;20510;-80
2023/07/29 00:53:30;;;;;;;6.80;6.20;;;;;;;17.06;94.69;97565.44;5068642;28;20516;-80
2023/07/29 00:55:57;;;;;;;7.90;7.10;;;;;;;17.12;94.60;97566.34;5067553;28;20535;-80
2023/07/29 00:58:24;;;;;;;6.83;6.23;;;;;;;17.03;94.83;97559.66;5068960;28;20553;-81
2023/07/29 01:00:51;;;;;;;6.60;6.07;;;;;;;17.12;94.69;97549.94;5068554;28;20450;-80
2023/07/29 01:03:19;;;;;;;7.17;6.10;;;;;;;17.12;94.21;97549.94;5068808;28;20490;-80
2023/07/29 01:05:53;;;;;;;6.10;5.70;;;;;;;17.19;94.30;97553.31;5068827;28;20508;-80
2023/07/29 01:08:23;;;;;;;6.50;5.20;;;;;;;17.12;94.40;97549.94;5068387;28;20478;-81
2023/07/29 01:10:56;;;;;;;6.13;5.60;;;;;;;17.03;94.92;97546.00;5068673;28;20443;-81
2023/07/29 01:13:42;;;;;;;6.93;6.33;;;;;;;16.98;95.38;97533.09;5066717;28;20501;-81
2023/07/29 01:16:11;;;;;;;6.67;6.13;;;;;;;17.12;94.79;97533.53;5068887;28;20524;-81
2023/07/29 01:18:40;;;;;;;15.43;5.70;;;;;;;17.10;94.33;97539.25;5068220;28;20541;-81
2023/07/29 01:21:09;;;;;;;7.20;6.50;;;;;;;17.07;94.63;97534.28;5068462;28;20450;-80
2023/07/29 01:23:37;;;;;;;6.03;5.53;;;;;;;17.03;94.60;97535.88;5071924;28;20446;-81
2023/07/29 01:26:04;;;;;;;5.70;5.30;;;;;;;17.01;95.04;97537.22;5072294;28;20454;-81
2023/07/29 01:28:31;;;;;;;7.47;6.77;;;;;;;17.06;94.72;97540.00;5070940;28;20466;-81
2023/07/29 01:31:03;;;;;;;6.70;6.00;;;;;;;16.99;94.99;97533.91;5071712;28;20454;-81
2023/07/29 01:33:35;;;;;;;5.53;5.13;;;;;;;17.07;94.75;97528.81;5071886;28;20462;-81
2023/07/29 01:36:04;;;;;;;6.37;5.87;;;;;;;17.03;94.71;97537.78;5072103;28;20446;-80
2023/07/29 01:38:38;;;;;;;5.60;5.20;;;;;;;16.93;95.08;97524.00;5071796;28;20484;-82
2023/07/29 01:41:08;;;;;;;6.10;5.67;;;;;;;16.83;95.71;97526.63;5071797;28;20485;-80
2023/07/29 01:43:41;;;;;;;5.97;5.50;;;;;;;16.87;95.59;97514.09;5071578;28;20949;-81
2023/07/29 01:46:08;;;;;;;6.33;5.73;;;;;;;16.96;95.10;97523.47;5069921;28;20457;-81
2023/07/29 01:48:35;;;;;;;5.20;4.80;;;;;;;16.87;95.17;97522.31;5071805;28;20461;-81
2023/07/29 01:51:01;;;;;;;6.40;5.80;;;;;;;17.01;94.92;97523.53;5071975;28;20499;-80
2023/07/29 01:53:28;;;;;;;5.57;5.17;;;;;;;16.92;95.12;97516.88;5071295;28;20900;-81
2023/07/29 01:55:57;;;;;;;5.00;4.53;;;;;;;16.95;94.62;97519.91;5071824;28;20442;-81
2023/07/29 01:58:24;;;;;;;5.30;4.80;;;;;;;17.05;94.78;97511.03;5071352;28;20561;-81
2023/07/29 02:00:50;;;;;;;4.40;4.10;;;;;;;17.03;94.16;97519.47;5070094;28;20497;-80
2023/07/29 02:03:18;;;;;;;4.27;3.97;;;;;;;16.92;94.51;97509.50;5070908;28;20446;-82
2023/07/29 02:05:44;;;;;;;4.13;3.83;;;;;;;17.01;94.58;97515.34;5071846;28;20438;-81
2023/07/29 02:08:11;;;;;;;5.03;4.73;;;;;;;16.98;94.24;97507.66;5070911;28;20568;-80
2023/07/29 02:10:38;;;;;;;4.50;4.10;;;;;;;16.95;94.78;97505.44;5071510;28;20541;-82
2023/07/29 02:13:06;;;;;;;5.70;5.20;;;;;;;17.07;94.21;97509.69;5071079;28;20495;-81
2023/07/29 02:15:33;;;;;;;5.70;4.00;;;;;;;16.96;94.32;97507.09;5071518;28;20486;-81
2023/07/29 02:18:01;;;;;;;4.10;3.80;;;;;;;16.97;94.33;97495.06;5069861;28;20489;-81
2023/07/29 02:20:28;;;;;;;5.43;4.97;;;;;;;16.94;94.48;97506.50;5070899;28;20507;-80
2023/07/29 02:22:55;;;;;;;4.67;4.27;;;;;;;16.93;94.52;97502.94;5070939;28;20449;-80
2023/07/29 02:25:22;;;;;;;4.70;4.40;;;;;;;17.00;94.48;97497.28;5071703;28;20564;-81
2023/07/29 02:27:49;;;;;;;4.33;4.00;;;;;;;17.01;93.89;97499.75;5071655;28;20474;-81
2023/07/29 02:30:17;;;;;;;4.50;4.17;;;;;;;17.21;93.76;97495.63;5072672;28;20466;-81
2023/07/29 02:32:44;;;;;;;4.80;4.40;;;;;;;16.94;94.13;97493.66;5071971;28;20568;-80
2023/07/29 02:35:11;;;;;;;4.97;4.57;;;;;;;16.96;94.23;97502.44;5070931;28;20946;-80
2023/07/29 02:37:37;;;;;;;5.10;4.60;;;;;;;16.91;94.50;97498.81;5071742;28;20466;-81
2023/07/29 02:40:05;;;;;;;4.90;4.50;;;;;;;16.94;94.28;97503.78;5073377;28;20442;-80
2023/07/29 02:42:32;;;;;;;5.40;5.00;;;;;;;16.94;94.29;97504.59;5086270;28;20447;-80
2023/07/29 02:44:59;;;;;;;5.03;4.63;;;;;;;16.99;94.04;97498.38;5083806;28;20506;-79
2023/07/29 02:47:27;;;;;;;4.10;3.80;;;;;;;16.92;94.26;97497.72;5078570;28;20486;-80
2023/07/29 02:49:54;;;;;;;4.80;4.40;;;;;;;16.90;94.21;97494.44;5073424;28;20451;-80
2023/07/29 02:52:21;;;;;;;4.10;3.80;;;;;;;16.97;93.97;97492.31;5072933;28;20451;-80
2023/07/29 02:54:48;;;;;;;3.73;3.43;;;;;;;16.95;94.23;97489.03;5067370;28;21015;-80
2023/07/29 02:57:15;;;;;;;5.70;4.17;;;;;;;16.79;94.32;97491.59;5064104;28;20523;-80
2023/07/29 02:59:41;;;;;;;4.30;4.00;;;;;;;16.77;94.64;97485.56;5065873;28;20504;-80
2023/07/29 03:02:08;;;;;;;4.80;4.40;;;;;;;16.88;94.38;97482.94;5068455;28;20529;-80
2023/07/29 03:04:37;;;;;;;5.67;4.30;;;;;;;16.76;94.45;97481.16;5068623;28;20446;-80
2023/07/29 03:07:04;;;;;;;5.03;4.40;;;;;;;16.80;94.33;97473.28;5069734;28;20480;-80
2023/07/29 03:09:32;;;;;;;4.27;3.97;;;;;;;16.78;94.58;97468.09;5069241;28;20454;-81
2023/07/29 03:11:59;;;;;;;4.47;3.40;;;;;;;16.78;94.49;97468.09;5069337;28;21005;-78
2023/07/29 03:14:26;;;;;;;3.50;3.30;;;;;;;16.79;94.29;97469.72;5070185;28;20470;-78
2023/07/29 03:16:53;;;;;;;4.50;3.80;;;;;;;16.70;94.65;97460.31;5070113;28;20541;-78
2023/07/29 03:19:20;;;;;;;4.33;3.93;;;;;;;16.64;94.93;97464.06;5070538;28;20457;-78
2023/07/29 03:21:48;;;;;;;3.90;3.60;;;;;;;16.80;94.63;97465.09;5069233;28;20450;-81
2023/07/29 03:24:15;;;;;;;4.60;4.27;;;;;;;16.72;94.40;97458.16;5067961;28;20541;-80
2023/07/29 03:26:42;;;;;;;5.00;4.60;;;;;;;16.75;94.28;97454.91;5070419;28;20519;-81
2023/07/29 03:29:08;;;;;;;5.30;4.77;;;;;;;16.89;93.92;97454.53;5069821;28;20533;-81
2023/07/29 03:31:35;;;;;;;4.63;4.10;;;;;;;16.76;94.17;97459.31;5070058;28;20470;-80
2023/07/29 03:34:02;;;;;;;4.10;3.80;;;;;;;16.85;94.02;97456.13;5069458;28;20999;-80
2023/07/29 03:36:29;;;;;;;4.10;3.80;;;;;;;16.93;93.41;97455.66;5069334;28;22309;-81
2023/07/29 03:38:58;;;;;;;4.17;3.87;;;;;;;16.90;93.68;97456.16;5068441;28;20546;-80
2023/07/29 03:41:25;;;;;;;4.77;4.10;;;;;;;16.96;93.57;97460.59;5070161;28;20477;-80
2023/07/29 03:43:51;;;;;;;4.80;4.50;;;;;;;17.12;92.74;97462.44;5069201;28;20503;-80
2023/07/29 03:46:21;;;;;;;4.13;3.80;;;;;;;16.99;93.14;97457.34;5069217;28;20449;-81
2023/07/29 03:48:48;;;;;;;4.60;4.20;;;;;;;16.96;93.59;97455.13;5069624;28;20953;-80
2023/07/29 03:51:14;;;;;;;5.10;4.67;;;;;;;16.96;93.57;97447.75;5068981;28;20503;-81
2023/07/29 03:53:41;;;;;;;4.20;3.90;;;;;;;17.02;93.44;97456.84;5068604;28;21026;-80
2023/07/29 03:56:09;;;;;;;4.93;4.20;;;;;;;17.19;92.85;97454.84;5068850;28;20569;-79
2023/07/29 03:58:36;;;;;;;5.83;4.63;;;;;;;17.22;92.46;97457.03;5067411;28;21072;-80
2023/07/29 04:01:04;;;;;;;4.80;3.80;;;;;;;17.08;93.36;97466.75;5069741;28;20487;-80
2023/07/29 04:03:31;;;;;;;4.47;4.13;;;;;;;17.00;93.77;97459.00;5068547;28;20950;-80
2023/07/29 04:05:57;;;;;;;4.87;4.53;;;;;;;17.03;93.75;97464.78;5069802;28;20548;-80
2023/07/29 04:08:24;;;;;;;4.60;4.20;;;;;;;16.92;94.59;97463.03;5068743;28;20884;-81
2023/07/29 04:10:51;;;;;;;7.10;4.70;;;;;;;16.87;94.66;97453.97;5069342;28;20511;-81
2023/07/29 04:13:19;;;;;;;5.00;4.50;;;;;;;16.70;95.35;97441.19;5069088;28;20475;-81
2023/07/29 04:15:47;;;;;;;4.63;4.30;;;;;;;16.82;95.07;97452.00;5067819;28;20559;-80
2023/07/29 04:18:13;;;;;;;5.83;4.77;;;;;;;16.78;95.24;97451.69;5069061;28;20458;-81
2023/07/29 04:20:40;;;;;;;4.47;4.17;;;;;;;16.79;95.42;97447.88;5069228;28;20466;-81
2023/07/29 04:23:07;;;;;;;4.77;4.40;;;;;;;16.84;95.33;97443.53;5068066;28;20538;-81
2023/07/29 04:25:34;;;;;;;4.20;3.90;;;;;;;16.88;94.72;97445.50;5068749;28;20507;-80
2023/07/29 04:28:03;;;;;;;4.77;4.37;;;;;;;16.95;94.77;97456.22;5068645;28;20505;-81
2023/07/29 04:30:31;;;;;;;4.60;3.93;;;;;;;16.98;94.71;97456.53;5067481;28;20486;-81
2023/07/29 04:32:58;;;;;;;4.40;4.00;;;;;;;17.00;94.56;97472.69;5068336;28;20473;-81
2023/07/29 04:35:25;;;;;;;4.03;3.73;;;;;;;17.01;94.54;97477.06;5068537;28;20593;-81
2023/07/29 04:37:52;;;;;;;3.87;3.47;;;;;;;16.91;94.96;97483.25;5068290;28;20919;-81
2023/07/29 04:40:19;;;;;;;3.57;3.27;;;;;;;16.95;94.81;97486.28;5066199;28;20962;-82
2023/07/29 04:42:46;;;;;;;3.77;3.47;;;;;;;17.01;94.80;97477.88;5067193;28;20458;-80
2023/07/29 04:45:13;;;;;;;4.17;3.77;;;;;;;17.13;94.57;97491.44;5068825;28;20481;-82
2023/07/29 04:47:41;;;;;;;4.90;3.93;;;;;;;17.11;94.53;97499.06;5069126;28;20462;-82
2023/07/29 04:50:09;;;;;;;3.40;3.10;;;;;;;17.25;94.19;97494.81;5068842;28;20477;-80
2023/07/29 04:52:37;;;;;;;4.10;3.50;;;;;;;17.28;93.66;97504.41;5068016;28;20454;-82
2023/07/29 04:55:05;;;;;;;5.80;4.20;;;;;;;17.26;93.60;97512.88;5068723;28;20477;-82
2023/07/29 04:57:32;;;;;;;4.40;3.97;;;;;;;17.27;93.70;97511.78;5072782;28;20506;-82
2023/07/29 04:59:59;;;;;;;7.23;4.07;;;;;;;17.31;93.82;97502.00;5071534;28;20497;-82
2023/07/29 05:02:26;;;;;;;4.80;4.03;;;;;;;17.31;94.46;97488.31;5072387;28;20524;-83
2023/07/29 05:04:54;;;;;;;4.93;3.73;;;;;;;17.25;94.58;97477.56;5072599;28;20458;-82
2023/07/29 05:07:21;;;;;;;4.13;3.80;;;;;;;17.07;95.45;97478.78;5072623;28;20478;-82
2023/07/29 05:09:48;;;;;;;3.77;3.47;;;;;;;17.20;95.15;97472.91;5072666;28;20446;-81
2023/07/29 05:12:14;;;;;;;5.50;4.50;;;;;;;17.10;95.20;97468.16;5074819;28;21278;-80
2023/07/29 05:14:41;;;;;;;4.77;4.37;;;;;;;17.09;95.59;97452.00;5073200;28;20937;-80
2023/07/29 05:17:08;;;;;;;4.60;4.30;;;;;;;17.10;95.86;97450.91;5071396;28;20492;-82
2023/07/29 05:19:35;;;;;;;4.30;4.00;;;;;;;17.42;95.11;97457.25;5072097;28;20516;-80
2023/07/29 05:22:03;;;;;;;4.50;4.20;;;;;;;17.30;95.15;97453.84;5072583;28;20438;-81
2023/07/29 05:24:30;;;;;;;4.87;4.47;;;;;;;17.11;96.06;97450.66;5072993;28;20841;-81
2023/07/29 05:26:57;;;;;;;5.60;5.07;;;;;;;17.18;96.51;97461.41;5071668;28;20478;-80
2023/07/29 05:29:24;;;;;;;6.77;4.73;;;;;;;17.25;95.69;97467.47;5076208;28;20449;-80
2023/07/29 05:31:50;;;;;;;5.40;4.90;;;;;;;17.20;96.11;97461.16;5078775;28;20476;-79
2023/07/29 05:34:19;;;;;;;4.50;4.20;;;;;;;17.29;95.42;97460.41;5087431;28;20456;-81
2023/07/29 05:36:45;;;;;;;4.10;3.80;;;;;;;17.37;95.15;97464.56;5077717;28;20619;-81
2023/07/29 05:39:14;;;;;;;4.63;4.20;;;;;;;17.30;95.72;97456.56;5074013;28;20999;-80
2023/07/29 05:41:41;;;;;;;4.50;4.13;;;;;;;17.38;95.74;97467.06;5073838;28;20466;-81
2023/07/29 05:44:08;;;;;;;4.70;4.30;;;;;;;17.30;95.56;97472.16;5072397;28;20500;-81
2023/07/29 05:46:34;;;;;;;5.07;4.30;;;;;;;17.28;96.31;97477.88;5072456;28;20474;-81
2023/07/29 05:49:01;;;;;;;5.30;4.83;;;;;;;17.47;95.55;97486.56;5070024;28;20450;-81
2023/07/29 05:51:28;;;;;;;6.13;4.33;;;;;;;17.42;95.23;97481.03;5069008;28;20434;-81
2023/07/29 05:53:54;;;;;;;4.47;4.07;;;;;;;17.51;95.13;97486.88;5067199;28;20474;-82
2023/07/29 05:56:22;;;;;;;3.80;3.50;;;;;;;17.45;94.83;97478.63;5071557;28;20573;-81
2023/07/29 05:58:49;;;;;;;4.17;3.87;;;;;;;17.59;94.37;97473.50;5069101;28;20454;-81
2023/07/29 06:01:16;;;;;;;3.93;3.63;;;;;;;17.65;94.63;97471.69;5071185;28;20531;-81
2023/07/29 06:03:43;;;;;;;4.20;3.60;;;;;;;17.85;94.78;97471.84;5071512;28;20439;-81
2023/07/29 06:06:10;;;;;;;4.60;4.20;;;;;;;18.03;94.08;97465.94;5071614;28;20455;-81
2023/07/29 06:08:37;;;;;;;4.00;3.70;;;;;;;18.09;93.18;97461.34;5070389;28;20525;-82
2023/07/29 06:11:06;;;;;;;4.20;3.90;;;;;;;18.11;93.44;97453.69;5071738;28;20482;-81
2023/07/29 06:13:34;;;;;;;4.03;3.63;;;;;;;18.22;93.49;97451.78;5071247;28;20435;-81
2023/07/29 06:16:00;;;;;;;4.00;3.60;;;;;;;18.30;93.00;97457.59;5070830;28;20537;-81
2023/07/29 06:18:26;;;;;;;5.57;3.83;;;;;;;18.50;92.80;97451.41;5069594;28;20462;-82
2023/07/29 06:20:53;;;;;;;4.00;3.70;;;;;;;18.64;91.91;97463.56;5071011;28;20554;-82
2023/07/29 06:23:20;;;;;;;3.27;3.07;;;;;;;18.76;91.08;97463.34;5070600;28;20540;-82
2023/07/29 06:25:47;;;;;;;4.07;3.67;;;;;;;18.83;90.88;97458.44;5070295;28;20860;-81
2023/07/29 06:28:14;;;;;;;3.47;3.17;;;;;;;18.72;91.31;97460.31;5069645;28;20553;-81
2023/07/29 06:30:42;;;;;;;3.93;3.63;;;;;;;18.67;90.23;97463.03;5070822;28;20511;-82
2023/07/29 06:33:09;;;;;;;3.77;3.47;;;;;;;18.67;91.24;97456.72;5069872;28;21192;-81
2023/07/29 06:35:36;;;;;;;3.80;3.50;;;;;;;18.93;90.39;97455.69;5070139;28;20583;-82
2023/07/29 06:38:02;;;;;;;3.87;3.10;;;;;;;18.73;90.43;97467.44;5069712;28;20490;-82
2023/07/29 06:40:29;;;;;;;3.40;3.07;;;;;;;18.66;90.92;97472.34;5069853;28;20541;-81
2023/07/29 06:42:56;;;;;;;3.53;3.23;;;;;;;18.82;90.58;97480.63;5070694;28;20431;-81
2023/07/29 06:45:23;;;;;;;5.10;3.40;;;;;;;18.73;90.53;97486.63;5070661;28;20451;-81
2023/07/29 06:47:51;;;;;;;3.80;3.13;;;;;;;18.75;90.42;97492.66;5070756;28;20493;-81
2023/07/29 06:50:18;;;;;;;3.73;3.43;;;;;;;18.66;90.80;97488.78;5070795;28;20451;-81
2023/07/29 06:52:45;;;;;;;3.13;2.90;;;;;;;18.49;91.85;97482.66;5069966;28;20453;-81
2023/07/29 06:55:12;;;;;;;4.13;3.80;;;;;;;18.72;91.17;97487.72;5070568;28;20474;-81
2023/07/29 06:57:39;;;;;;;4.03;3.73;;;;;;;19.06;89.76;97484.53;5068818;28;20815;-81
2023/07/29 07:00:09;;;;;;;4.50;3.33;;;;;;;18.82;90.65;97491.59;5070024;28;20442;-81
2023/07/29 07:02:35;;;;;;;4.00;3.23;;;;;;;18.86;90.28;97489.94;5069469;28;20473;-81
2023/07/29 07:05:04;;;;;;;4.20;3.80;;;;;;;19.09;89.63;97490.31;5069146;28;20462;-81
2023/07/29 07:07:31;;;;;;;3.80;3.50;;;;;;;19.10;90.42;97493.88;5069484;28;20467;-81
2023/07/29 07:09:57;;;;;;;4.67;4.27;;;;;;;19.24;89.90;97496.91;5070483;28;20446;-82
2023/07/29 07:12:24;;;;;;;3.40;3.20;;;;;;;18.82;91.41;97497.09;5070608;28;20446;-82
2023/07/29 07:14:51;;;;;;;5.50;3.80;;;;;;;19.09;90.39;97492.25;5069319;28;20478;-81
2023/07/29 07:17:18;;;;;;;4.37;3.80;;;;;;;18.60;92.41;97505.47;5069584;28;20847;-82
2023/07/29 07:19:46;;;;;;;5.40;4.03;;;;;;;18.61;93.17;97507.94;5068140;28;20946;-82
2023/07/29 07:22:14;;;;;;;4.00;3.67;;;;;;;18.64;92.80;97510.16;5070063;28;20458;-82
2023/07/29 07:24:41;;;;;;;4.10;3.80;;;;;;;18.63;93.05;97514.00;5070001;28;20519;-81
2023/07/29 07:27:07;;;;;;;4.33;3.97;;;;;;;18.73;92.80;97514.03;5069602;28;20985;-81
2023/07/29 07:29:34;;;;;;;3.80;3.50;;;;;;;18.79;92.70;97514.91;5069364;28;21009;-82
2023/07/29 07:32:01;;;;;;;4.63;4.20;;;;;;;18.89;92.08;97512.19;5069837;28;20545;-81
2023/07/29 07:34:28;;;;;;;3.83;3.53;;;;;;;18.96;91.53;97515.50;5068830;28;20457;-82
2023/07/29 07:36:55;;;;;;;4.40;4.00;;;;;;;19.04;90.86;97511.41;5067769;28;20497;-82
2023/07/29 07:39:23;;;;;;;3.97;3.60;;;;;;;19.11;91.25;97517.47;5069621;28;20705;-81
2023/07/29 07:41:50;;;;;;;3.77;3.37;;;;;;;19.21;90.44;97519.41;5069532;28;20541;-81
2023/07/29 07:44:17;;;;;;;3.90;3.50;;;;;;;19.26;90.28;97520.25;5068479;28;20446;-82
2023/07/29 07:46:44;;;;;;;3.47;3.17;;;;;;;19.38;89.76;97518.09;5069413;28;20509;-82
2023/07/29 07:49:12;;;;;;;4.43;3.70;;;;;;;19.72;89.23;97512.97;5069972;28;20914;-82
2023/07/29 07:51:39;;;;;;;2.70;2.60;;;;;;;19.41;88.74;97511.25;5069859;28;20461;-81
2023/07/29 07:54:05;;;;;;;3.17;2.87;;;;;;;19.55;88.00;97523.34;5068216;28;20483;-82
2023/07/29 07:56:34;;;;;;;2.90;2.50;;;;;;;19.72;88.21;97509.38;5069195;28;20514;-82
2023/07/29 07:59:01;;;;;;;2.90;2.70;;;;;;;20.05;86.59;97510.75;5069359;28;20455;-81
2023/07/29 08:01:27;;;;;;;2.50;2.30;;;;;;;20.24;85.64;97508.25;5069432;28;20448;-82
2023/07/29 08:03:56;;;;;;;1.60;1.50;;;;;;;20.25;83.88;97498.91;5070526;28;20459;-82
2023/07/29 08:06:23;;;;;;;2.17;1.90;;;;;;;20.76;83.99;97505.97;5070049;28;20545;-82
2023/07/29 08:08:50;;;;;;;2.50;2.30;;;;;;;21.06;82.99;97495.91;5071047;28;20444;-81
2023/07/29 08:11:17;;;;;;;2.00;1.80;;;;;;;21.54;80.04;97505.28;5068875;28;21052;-82
2023/07/29 08:13:45;;;;;;;3.23;1.93;;;;;;;21.83;80.03;97516.34;5070134;28;20549;-82
2023/07/29 08:16:11;;;;;;;2.23;2.10;;;;;;;21.70;80.59;97514.28;5078194;28;20505;-83
2023/07/29 08:18:38;;;;;;;3.77;2.53;;;;;;;22.07;78.23;97525.59;5085176;28;20454;-82
2023/07/29 08:21:05;;;;;;;3.00;2.80;;;;;;;23.39;72.50;97529.63;5082416;28;20442;-82
2023/07/29 08:23:33;;;;;;;2.70;2.50;;;;;;;24.04;70.32;97529.75;5082644;28;20434;-81
2023/07/29 08:26:02;;;;;;;2.03;1.93;;;;;;;23.46;71.50;97537.53;5072772;28;20486;-83
2023/07/29 08:28:29;;;;;;;3.83;1.77;;;;;;;22.00;75.04;97530.56;5071587;28;20499;-81
2023/07/29 08:30:57;;;;;;;1.73;1.60;;;;;;;21.23;77.95;97534.94;5070412;28;20803;-82
2023/07/29 08:33:24;;;;;;;2.13;1.97;;;;;;;21.16;78.09;97539.06;5069723;28;20465;-81
2023/07/29 08:35:51;;;;;;;2.03;1.50;;;;;;;20.91;78.80;97534.50;5068561;28;20446;-81
2023/07/29 08:38:18;;;;;;;2.03;1.83;;;;;;;21.06;78.91;97531.69;5066980;28;20537;-81
2023/07/29 08:40:47;;;;;;;1.47;1.30;;;;;;;21.41;76.10;97533.47;5067729;28;20457;-81
2023/07/29 08:43:15;;;;;;;1.83;1.40;;;;;;;21.33;76.39;97529.38;5068609;28;20482;-82
2023/07/29 08:45:43;;;;;;;1.43;1.30;;;;;;;21.73;74.24;97520.03;5068553;28;20457;-81
2023/07/29 08:48:11;;;;;;;1.50;1.40;;;;;;;22.15;73.32;97521.34;5067492;28;20472;-80
2023/07/29 08:50:38;;;;;;;2.30;2.07;;;;;;;22.82;71.26;97518.78;5067115;28;20548;-82
2023/07/29 08:53:06;;;;;;;1.60;1.27;;;;;;;23.19;70.33;97521.63;5067414;28;20461;-82
2023/07/29 08:55:33;;;;;;;2.07;1.40;;;;;;;23.36;69.88;97524.72;5068538;28;20515;-82
2023/07/29 08:58:01;;;;;;;1.40;1.30;;;;;;;23.39;69.38;97526.06;5067595;28;20577;-82
2023/07/29 09:00:28;;;;;;;1.30;1.20;;;;;;;23.42;68.47;97520.75;5068871;28;20489;-82
2023/07/29 09:02:57;;;;;;;1.50;1.40;;;;;;;23.54;68.90;97519.50;5068390;28;20514;-81
2023/07/29 09:05:25;;;;;;;1.30;1.20;;;;;;;24.37;67.45;97522.31;5067935;28;20513;-81
2023/07/29 09:07:52;;;;;;;1.17;1.07;;;;;;;24.82;63.04;97527.31;5068167;28;20500;-81
2023/07/29 09:10:22;;;;;;;1.77;1.67;;;;;;;24.88;62.90;97526.91;5067459;28;20930;-81
2023/07/29 09:12:49;;;;;;;1.70;1.40;;;;;;;24.05;65.01;97520.34;5068166;28;20484;-81
2023/07/29 09:15:27;;;;;;;1.43;1.33;;;;;;;23.41;65.93;97524.63;5068892;28;20547;-81
2023/07/29 09:17:56;;;;;;;1.40;1.30;;;;;;;23.22;66.22;97520.22;5068551;28;20492;-81
2023/07/29 09:20:26;;;;;;;2.00;1.30;;;;;;;23.34;67.47;97506.78;5068447;28;20452;-81
2023/07/29 09:22:54;;;;;;;2.30;1.50;;;;;;;24.21;66.10;97512.63;5069826;28;20447;-80
2023/07/29 09:25:25;;;;;;;2.77;1.40;;;;;;;25.05;61.73;97526.31;5066296;28;20544;-81
2023/07/29 09:27:51;;;;;;;2.07;1.50;;;;;;;25.71;59.46;97525.69;5068482;28;20474;-81
2023/07/29 09:30:18;;;;;;;1.43;1.33;;;;;;;25.86;58.96;97513.44;5068920;28;20501;-82
2023/07/29 09:32:45;;;;;;;1.30;1.20;;;;;;;25.41;59.98;97515.28;5067460;28;20454;-81
2023/07/29 09:35:13;;;;;;;1.23;1.13;;;;;;;25.01;59.99;97517.00;5068019;28;20453;-81
2023/07/29 09:37:41;;;;;;;1.47;1.37;;;;;;;24.76;60.01;97524.63;5068260;28;20518;-80
2023/07/29 09:40:14;;;;;;;1.20;1.10;;;;;;;24.23;62.60;97512.31;5068516;28;20937;-81
2023/07/29 09:42:41;;;;;;;1.50;1.40;;;;;;;23.98;62.61;97503.34;5067692;28;20458;-81
2023/07/29 09:45:09;;;;;;;1.50;1.40;;;;;;;23.47;63.67;97497.75;5071654;28;20470;-81
2023/07/29 09:47:36;;;;;;;1.40;1.30;;;;;;;23.62;64.52;97497.56;5071984;28;20466;-80
2023/07/29 09:50:03;;;;;;;1.40;1.30;;;;;;;23.43;66.01;97504.97;5071783;28;20461;-81
2023/07/29 09:52:30;;;;;;;1.43;1.30;;;;;;;22.81;69.14;97495.06;5071628;28;20450;-81
2023/07/29 09:54:58;;;;;;;1.90;1.60;;;;;;;22.67;69.01;97504.03;5071738;28;20970;-80
2023/07/29 09:57:24;;;;;;;1.40;1.30;;;;;;;22.49;68.25;97496.47;5071518;28;20601;-81
2023/07/29 09:59:55;;;;;;;2.17;1.50;;;;;;;22.70;68.46;97488.81;5070147;28;20521;-81
2023/07/29 10:02:22;;;;;;;2.50;1.30;;;;;;;22.41;70.69;97514.50;5071019;28;20492;-80
2023/07/29 10:04:49;;;;;;;1.80;1.70;;;;;;;22.48;71.98;97505.88;5072149;28;20529;-80
2023/07/29 10:07:16;;;;;;;2.70;2.20;;;;;;;21.66;76.09;97516.78;5070962;28;20474;-81
2023/07/29 10:09:44;;;;;;;2.63;2.03;;;;;;;20.32;81.83;97526.94;5071512;28;20798;-81
2023/07/29 10:12:13;;;;;;;3.20;2.00;;;;;;;19.74;84.42;97542.91;5073444;28;20876;-81
2023/07/29 10:14:40;;;;;;;2.67;2.47;;;;;;;19.35;86.23;97524.13;5079873;28;20455;-81
2023/07/29 10:17:06;;;;;;;3.87;2.57;;;;;;;19.87;86.50;97531.34;5070137;28;20592;-81
2023/07/29 10:19:35;;;;;;;2.50;2.10;;;;;;;20.64;82.67;97529.38;5072118;28;20449;-82
2023/07/29 10:22:04;;;;;;;1.90;1.80;;;;;;;21.04;81.43;97528.41;5069990;28;20504;-82
2023/07/29 10:24:33;;;;;;;1.90;1.70;;;;;;;21.54;79.16;97532.81;5070794;28;20468;-81
2023/07/29 10:27:01;;;;;;;1.60;1.50;;;;;;;21.07;79.77;97544.34;5070881;28;20497;-82
2023/07/29 10:29:32;;;;;;;2.20;2.10;;;;;;;20.43;81.01;97539.59;5071620;28;20997;-82
2023/07/29 10:32:03;;;;;;;2.10;1.60;;;;;;;20.90;79.65;97532.84;5071412;28;20449;-82
2023/07/29 10:34:31;;;;;;;5.33;2.27;;;;;;;21.68;74.97;97527.50;5070186;28;20531;-80
2023/07/29 10:36:58;;;;;;;2.40;2.10;;;;;;;21.95;75.63;97538.06;5070128;28;20496;-80
2023/07/29 10:39:25;;;;;;;1.60;1.50;;;;;;;23.84;69.08;97530.09;5071304;28;20880;-81
2023/07/29 10:41:57;;;;;;;1.30;1.20;;;;;;;24.46;62.69;97533.50;5070679;28;21049;-81
2023/07/29 10:44:50;;;;;;;1.50;1.40;;;;;;;24.52;64.00;97531.47;5070792;28;20515;-81
2023/07/29 10:47:19;;;;;;;2.10;1.37;;;;;;;24.15;65.20;97535.13;5069248;28;20478;-81
2023/07/29 10:49:46;;;;;;;2.80;1.50;;;;;;;24.45;62.92;97526.34;5071157;28;20545;-81
2023/07/29 10:52:14;;;;;;;0.90;0.90;;;;;;;24.76;61.55;97537.66;5070914;28;20548;-81
2023/07/29 10:54:45;;;;;;;1.30;0.97;;;;;;;25.20;61.16;97533.50;5069838;28;20603;-81
2023/07/29 10:57:15;;;;;;;2.40;1.27;;;;;;;25.09;59.65;97535.63;5070789;28;20540;-81
2023/07/29 10:59:55;;;;;;;1.00;1.00;;;;;;;25.81;57.01;97532.97;5070654;28;20867;-82
2023/07/29 11:02:29;;;;;;;1.27;1.17;;;;;;;25.23;59.54;97528.16;5074061;28;20446;-82
2023/07/29 11:04:57;;;;;;;1.67;1.33;;;;;;;24.89;59.83;97528.53;5074294;28;20536;-82
2023/07/29 11:07:27;;;;;;;1.80;1.53;;;;;;;23.80;61.19;97518.00;5076510;28;21047;-81
2023/07/29 11:09:56;;;;;;;1.40;1.30;;;;;;;24.01;61.61;97522.09;5078613;28;20458;-81
2023/07/29 11:12:45;;;;;;;1.43;1.33;;;;;;;24.92;58.97;97527.13;5073238;28;20462;-81
2023/07/29 11:15:22;;;;;;;1.20;1.10;;;;;;;25.84;56.78;97537.91;5074332;28;20514;-82
2023/07/29 11:17:50;;;;;;;1.20;1.00;;;;;;;26.78;56.19;97523.84;5071767;28;20490;-82
2023/07/29 11:20:17;;;;;;;1.10;0.90;;;;;;;26.90;52.60;97526.03;5071132;28;20496;-82
2023/07/29 11:22:44;;;;;;;1.43;0.97;;;;;;;26.59;53.58;97523.28;5070345;28;20458;-82
2023/07/29 11:25:12;;;;;;;1.23;1.00;;;;;;;25.29;54.91;97526.09;5071151;28;20492;-81
2023/07/29 11:27:39;;;;;;;1.20;1.00;;;;;;;24.53;58.96;97520.09;5075298;28;20492;-81
2023/07/29 11:30:09;;;;;;;1.10;1.00;;;;;;;24.07;58.90;97518.09;5086462;28;20446;-81
2023/07/29 11:32:38;;;;;;;1.53;0.80;;;;;;;24.24;59.33;97516.72;5081481;28;20893;-81
2023/07/29 11:35:07;;;;;;;1.00;1.00;;;;;;;24.01;59.93;97521.28;5074408;28;21041;-81
2023/07/29 11:37:34;;;;;;;1.10;1.00;;;;;;;23.94;59.64;97513.38;5071188;28;21582;-80